createdAt,value
2018-09-24T00:02:26.687Z,10.62
2018-09-24T00:05:01.852Z,10.58
2018-09-24T00:07:37.642Z,10.61
2018-09-24T00:10:12.460Z,10.64
2018-09-24T00:12:48.985Z,10.65
2018-09-24T00:15:24.323Z,10.59
2018-09-24T00:17:58.836Z,10.56
2018-09-24T00:20:33.680Z,10.53
2018-09-24T00:23:08.353Z,10.54
2018-09-24T00:25:43.528Z,10.59
2018-09-24T00:28:19.100Z,10.47
2018-09-24T00:30:53.937Z,10.49
2018-09-24T00:33:28.981Z,10.44
2018-09-24T00:36:04.036Z,10.49
2018-09-24T00:38:40.128Z,10.55
2018-09-24T00:41:15.759Z,10.56
2018-09-24T00:43:50.574Z,10.58
2018-09-24T00:46:25.514Z,10.57
2018-09-24T00:49:01.204Z,10.51
2018-09-24T00:51:36.153Z,10.58
2018-09-24T00:54:11.247Z,10.58
2018-09-24T00:56:46.116Z,10.51
2018-09-24T00:59:21.156Z,10.56
2018-09-24T01:01:56.036Z,10.59
2018-09-24T01:04:30.760Z,10.55
2018-09-24T01:07:06.792Z,10.57
2018-09-24T01:09:42.107Z,10.59
2018-09-24T01:12:17.340Z,10.61
2018-09-24T01:14:53.021Z,10.58
2018-09-24T01:17:28.333Z,10.54
2018-09-24T01:20:03.672Z,10.51
2018-09-24T01:22:38.585Z,10.42
2018-09-24T01:25:16.006Z,10.44
2018-09-24T01:27:52.175Z,10.45
2018-09-24T01:30:28.101Z,10.46
2018-09-24T01:33:04.970Z,10.41
2018-09-24T01:35:39.668Z,10.32
2018-09-24T01:38:14.383Z,10.33
2018-09-24T01:40:49.087Z,10.29
2018-09-24T01:43:24.224Z,10.32
2018-09-24T01:46:01.071Z,10.36
2018-09-24T01:48:37.290Z,10.32
2018-09-24T01:51:12.204Z,10.24
2018-09-24T01:53:48.222Z,10.27
2018-09-24T01:56:23.251Z,10.24
2018-09-24T01:58:58.850Z,10.18
2018-09-24T02:01:33.776Z,10.18
2018-09-24T02:04:08.597Z,10.16
2018-09-24T02:06:43.471Z,10.12
2018-09-24T02:09:18.165Z,10.10
2018-09-24T02:11:52.957Z,10.11
2018-09-24T02:14:29.032Z,10.11
2018-09-24T02:17:04.466Z,10.08
2018-09-24T02:19:39.224Z,10.11
2018-09-24T02:22:15.073Z,10.10
2018-09-24T02:24:50.895Z,10.10
2018-09-24T02:27:25.916Z,10.13
2018-09-24T02:30:00.491Z,10.18
2018-09-24T02:32:35.179Z,10.16
2018-09-24T02:35:10.472Z,10.23
2018-09-24T02:37:46.102Z,10.22
2018-09-24T02:40:23.140Z,10.21
2018-09-24T02:42:57.989Z,10.26
2018-09-24T02:45:34.306Z,10.18
2018-09-24T02:48:10.347Z,10.16
2018-09-24T02:50:45.269Z,10.16
2018-09-24T02:53:21.575Z,10.10
2018-09-24T02:55:56.543Z,9.91
2018-09-24T02:58:31.427Z,9.96
2018-09-24T03:01:06.104Z,10.01
2018-09-24T03:03:41.411Z,9.95
2018-09-24T03:06:16.686Z,9.80
2018-09-24T03:08:51.567Z,9.89
2018-09-24T03:11:27.977Z,9.88
2018-09-24T03:14:04.349Z,9.92
2018-09-24T03:16:39.283Z,9.89
2018-09-24T03:19:14.183Z,9.94
2018-09-24T03:21:49.519Z,9.97
2018-09-24T03:24:25.440Z,9.97
2018-09-24T03:27:00.549Z,9.96
2018-09-24T03:29:34.869Z,9.97
2018-09-24T03:32:09.541Z,9.93
2018-09-24T03:34:45.148Z,9.93
2018-09-24T03:37:21.223Z,9.78
2018-09-24T03:39:56.193Z,9.76
2018-09-24T03:42:31.926Z,9.75
2018-09-24T03:45:07.095Z,9.84
2018-09-24T03:47:42.336Z,9.78
2018-09-24T03:50:17.072Z,9.77
2018-09-24T03:52:51.938Z,9.70
2018-09-24T03:55:28.013Z,9.74
2018-09-24T03:58:02.546Z,9.69
2018-09-24T04:00:37.327Z,9.68
2018-09-24T04:03:12.188Z,9.75
2018-09-24T04:05:52.448Z,9.79
2018-09-24T04:08:32.165Z,9.73
2018-09-24T04:11:11.865Z,9.84
2018-09-24T04:13:51.933Z,9.85
2018-09-24T04:16:31.643Z,9.91
2018-09-24T04:19:11.386Z,9.85
2018-09-24T04:21:51.266Z,9.69
2018-09-24T04:24:32.066Z,9.82
2018-09-24T04:27:11.857Z,9.87
2018-09-24T04:29:51.645Z,9.80
2018-09-24T04:32:31.459Z,9.85
2018-09-24T04:35:11.485Z,9.87
2018-09-24T04:37:51.067Z,9.89
2018-09-24T04:40:30.562Z,9.89
2018-09-24T04:43:10.221Z,9.88
2018-09-24T04:45:50.359Z,9.89
2018-09-24T04:48:29.986Z,9.83
2018-09-24T04:51:09.615Z,9.84
2018-09-24T04:53:50.223Z,9.86
2018-09-24T04:56:29.880Z,9.87
2018-09-24T04:59:09.442Z,9.86
2018-09-24T05:01:49.131Z,9.85
2018-09-24T05:04:30.632Z,9.85
2018-09-24T05:07:10.274Z,9.79
2018-09-24T05:09:50.237Z,9.85
2018-09-24T05:12:30.953Z,9.78
2018-09-24T05:15:10.671Z,9.74
2018-09-24T05:17:50.413Z,9.77
2018-09-24T05:20:30.672Z,9.77
2018-09-24T05:23:10.196Z,9.73
2018-09-24T05:25:49.940Z,9.67
2018-09-24T05:28:30.018Z,9.68
2018-09-24T05:31:09.767Z,9.70
2018-09-24T05:33:49.997Z,9.77
2018-09-24T05:36:29.726Z,9.83
2018-09-24T05:39:09.644Z,9.75
2018-09-24T05:41:49.870Z,9.75
2018-09-24T05:44:29.482Z,9.80
2018-09-24T05:47:09.208Z,9.83
2018-09-24T05:49:48.934Z,9.85
2018-09-24T05:52:28.423Z,9.88
2018-09-24T05:55:08.154Z,9.87
2018-09-24T05:57:48.606Z,9.93
2018-09-24T06:00:28.494Z,9.94
2018-09-24T06:03:08.223Z,10.02
2018-09-24T06:05:52.211Z,10.10
2018-09-24T06:08:31.617Z,10.12
2018-09-24T06:11:11.361Z,10.14
2018-09-24T06:13:51.611Z,10.13
2018-09-24T06:16:32.492Z,10.15
2018-09-24T06:19:12.390Z,10.15
2018-09-24T06:21:52.094Z,10.21
2018-09-24T06:24:32.659Z,10.23
2018-09-24T06:27:12.766Z,10.25
2018-09-24T06:29:52.576Z,10.34
2018-09-24T06:32:32.316Z,10.39
2018-09-24T06:35:12.183Z,10.48
2018-09-24T06:37:51.992Z,10.54
2018-09-24T06:40:31.677Z,10.56
2018-09-24T06:43:12.119Z,10.63
2018-09-24T06:45:51.636Z,10.64
2018-09-24T06:48:31.434Z,10.82
2018-09-24T06:51:11.123Z,10.79
2018-09-24T06:53:51.896Z,10.76
2018-09-24T06:56:31.526Z,10.78
2018-09-24T06:59:11.643Z,10.57
2018-09-24T07:01:52.257Z,10.66
2018-09-24T07:04:31.756Z,10.62
2018-09-24T07:07:12.071Z,10.77
2018-09-24T07:09:52.090Z,10.79
2018-09-24T07:12:32.254Z,10.96
2018-09-24T07:15:11.815Z,11.10
2018-09-24T07:17:51.521Z,11.15
2018-09-24T07:20:31.447Z,11.27
2018-09-24T07:23:11.241Z,11.43
2018-09-24T07:25:52.035Z,11.42
2018-09-24T07:28:31.905Z,11.45
2018-09-24T07:31:11.717Z,11.38
2018-09-24T07:33:51.534Z,11.38
2018-09-24T07:36:31.236Z,11.31
2018-09-24T07:39:14.708Z,11.36
2018-09-24T07:41:54.514Z,11.52
2018-09-24T07:44:34.484Z,11.65
2018-09-24T07:47:14.620Z,11.66
2018-09-24T07:49:55.257Z,11.65
2018-09-24T07:52:35.308Z,11.91
2018-09-24T07:55:15.723Z,12.04
2018-09-24T07:57:55.554Z,12.26
2018-09-24T08:00:37.260Z,12.31
2018-09-24T08:03:17.092Z,12.41
2018-09-24T08:05:57.623Z,12.61
2018-09-24T08:08:38.072Z,12.47
2018-09-24T08:11:17.694Z,12.22
2018-09-24T08:13:57.598Z,12.16
2018-09-24T08:16:38.413Z,11.92
2018-09-24T08:19:19.097Z,12.09
2018-09-24T08:21:58.763Z,12.02
2018-09-24T08:24:38.377Z,11.88
2018-09-24T08:27:18.062Z,11.70
2018-09-24T08:29:57.988Z,11.60
2018-09-24T08:32:38.795Z,11.50
2018-09-24T08:35:18.608Z,11.53
2018-09-24T08:37:58.080Z,11.49
2018-09-24T08:40:38.182Z,11.43
2018-09-24T08:43:18.947Z,11.53
2018-09-24T08:45:58.617Z,11.60
2018-09-24T08:48:38.943Z,11.77
2018-09-24T08:51:18.609Z,11.81
2018-09-24T08:53:58.385Z,11.91
2018-09-24T08:56:37.819Z,12.03
2018-09-24T08:59:17.768Z,12.31
2018-09-24T09:01:57.265Z,12.57
2018-09-24T09:04:37.451Z,12.77
2018-09-24T09:07:17.148Z,12.80
2018-09-24T09:09:56.883Z,13.10
2018-09-24T09:12:36.648Z,13.10
2018-09-24T09:15:16.398Z,12.85
2018-09-24T09:17:56.226Z,12.99
2018-09-24T09:20:35.891Z,13.04
2018-09-24T09:23:15.523Z,13.20
2018-09-24T09:25:55.275Z,13.33
2018-09-24T09:28:35.235Z,13.51
2018-09-24T09:31:15.297Z,13.59
2018-09-24T09:33:55.743Z,13.57
2018-09-24T09:36:36.113Z,13.75
2018-09-24T09:39:16.065Z,14.07
2018-09-24T09:41:56.155Z,14.25
2018-09-24T09:44:35.896Z,14.19
2018-09-24T09:47:15.481Z,14.41
2018-09-24T09:49:55.120Z,14.66
2018-09-24T09:52:35.791Z,14.82
2018-09-24T09:55:15.555Z,15.45
2018-09-24T09:57:55.933Z,15.92
2018-09-24T10:00:35.485Z,15.95
2018-09-24T10:03:16.000Z,15.62
2018-09-24T10:05:55.707Z,15.30
2018-09-24T10:08:35.480Z,14.89
2018-09-24T10:11:15.105Z,14.39
2018-09-24T10:13:55.144Z,14.19
2018-09-24T10:16:35.030Z,14.13
2018-09-24T10:19:14.875Z,14.15
2018-09-24T10:21:55.520Z,13.99
2018-09-24T10:24:36.712Z,13.69
2018-09-24T10:27:16.976Z,13.42
2018-09-24T10:29:56.698Z,13.17
2018-09-24T10:32:36.714Z,12.95
2018-09-24T10:35:16.676Z,12.81
2018-09-24T10:37:56.595Z,12.90
2018-09-24T10:40:36.226Z,12.83
2018-09-24T10:43:15.880Z,12.81
2018-09-24T10:45:56.140Z,12.83
2018-09-24T10:48:36.092Z,12.64
2018-09-24T10:51:15.944Z,12.57
2018-09-24T10:53:55.441Z,12.72
2018-09-24T10:56:35.357Z,12.79
2018-09-24T10:59:15.065Z,12.78
2018-09-24T11:01:54.983Z,12.86
2018-09-24T11:04:34.620Z,12.82
2018-09-24T11:16:40.165Z,12.91
2018-09-24T11:19:20.053Z,13.07
2018-09-24T11:22:00.728Z,13.26
2018-09-24T11:24:40.986Z,13.48
2018-09-24T11:27:21.083Z,13.45
2018-09-24T11:30:00.958Z,13.30
2018-09-24T11:32:40.875Z,13.08
2018-09-24T11:35:20.409Z,12.79
2018-09-24T11:37:59.821Z,12.90
2018-09-24T11:40:39.610Z,13.22
2018-09-24T11:43:19.572Z,13.34
2018-09-24T11:46:00.952Z,13.46
2018-09-24T11:48:40.567Z,13.90
2018-09-24T11:51:20.349Z,14.59
2018-09-24T11:53:59.998Z,16.01
2018-09-24T11:56:39.768Z,16.31
2018-09-24T11:59:19.381Z,15.46
2018-09-24T12:01:59.537Z,14.98
2018-09-24T12:04:39.218Z,14.67
2018-09-24T12:07:18.973Z,14.12
2018-09-24T12:09:58.518Z,14.13
2018-09-24T12:12:38.367Z,14.23
2018-09-24T12:15:17.806Z,14.82
2018-09-24T12:17:57.640Z,14.77
2018-09-24T12:20:37.517Z,14.70
2018-09-24T12:23:17.769Z,14.82
2018-09-24T12:25:58.335Z,14.91
2018-09-24T12:28:39.187Z,14.64
2018-09-24T12:31:18.829Z,14.30
2018-09-24T12:33:59.515Z,14.12
2018-09-24T12:36:39.972Z,13.92
2018-09-24T12:39:19.846Z,13.92
2018-09-24T12:41:59.857Z,14.03
2018-09-24T12:44:39.646Z,13.98
2018-09-24T12:47:19.392Z,13.84
2018-09-24T12:49:59.142Z,13.88
2018-09-24T12:52:38.861Z,13.83
2018-09-24T12:55:18.831Z,13.73
2018-09-24T12:57:58.681Z,13.85
2018-09-24T13:00:38.280Z,13.76
2018-09-24T13:03:17.792Z,13.67
2018-09-24T13:05:56.958Z,13.60
2018-09-24T13:08:36.215Z,13.58
2018-09-24T13:11:15.642Z,13.54
2018-09-24T13:13:54.729Z,13.51
2018-09-24T13:16:34.053Z,13.43
2018-09-24T13:19:13.533Z,13.49
2018-09-24T13:21:52.598Z,13.51
2018-09-24T13:24:31.999Z,13.42
2018-09-24T13:27:11.305Z,13.35
2018-09-24T13:29:50.438Z,13.39
2018-09-24T13:32:29.639Z,13.42
2018-09-24T13:35:11.309Z,13.44
2018-09-24T13:37:50.536Z,13.49
2018-09-24T13:40:30.552Z,13.54
2018-09-24T13:43:09.785Z,13.63
2018-09-24T13:45:49.023Z,13.65
2018-09-24T13:48:29.172Z,13.84
2018-09-24T13:51:09.466Z,13.72
2018-09-24T13:53:48.597Z,13.69
2018-09-24T13:56:27.557Z,13.58
2018-09-24T13:59:07.110Z,13.52
2018-09-24T14:01:46.434Z,13.51
2018-09-24T14:04:25.388Z,13.52
2018-09-24T14:07:04.500Z,13.55
2018-09-24T14:09:43.348Z,13.50
2018-09-24T14:12:22.897Z,13.50
2018-09-24T14:15:01.948Z,13.45
2018-09-24T14:17:40.987Z,13.28
2018-09-24T14:20:21.042Z,13.24
2018-09-24T14:23:00.519Z,13.14
2018-09-24T14:25:39.711Z,13.13
2018-09-24T14:28:18.805Z,13.06
2018-09-24T14:30:58.077Z,12.95
2018-09-24T14:33:37.099Z,12.95
2018-09-24T14:36:16.760Z,12.82
2018-09-24T14:38:56.099Z,12.88
2018-09-24T14:41:35.625Z,12.90
2018-09-24T14:44:15.083Z,12.81
2018-09-24T14:46:54.199Z,12.81
2018-09-24T14:49:33.319Z,12.79
2018-09-24T14:52:13.416Z,12.83
2018-09-24T14:54:52.949Z,12.85
2018-09-24T14:57:32.725Z,12.69
2018-09-24T15:00:13.343Z,12.78
2018-09-24T15:02:52.874Z,12.74
2018-09-24T15:05:32.083Z,12.77
2018-09-24T15:08:11.737Z,12.79
2018-09-24T15:10:51.550Z,12.78
2018-09-24T15:13:30.891Z,12.73
2018-09-24T15:16:10.773Z,12.69
2018-09-24T15:18:50.428Z,12.66
2018-09-24T15:21:30.355Z,12.61
2018-09-24T15:24:09.330Z,12.66
2018-09-24T15:26:48.430Z,12.61
2018-09-24T15:29:28.107Z,12.55
2018-09-24T15:32:07.833Z,12.54
2018-09-24T15:34:48.070Z,12.51
2018-09-24T15:37:28.284Z,12.54
2018-09-24T15:40:07.552Z,12.48
2018-09-24T15:42:46.831Z,12.53
2018-09-24T15:45:26.008Z,12.61
2018-09-24T15:48:05.187Z,12.55
2018-09-24T15:50:44.355Z,12.56
2018-09-24T15:53:23.469Z,12.60
2018-09-24T15:56:02.369Z,12.57
2018-09-24T15:58:41.452Z,12.55
2018-09-24T16:01:20.701Z,12.52
2018-09-24T16:04:00.548Z,12.58
2018-09-24T16:06:39.815Z,12.47
2018-09-24T16:09:19.069Z,12.53
2018-09-24T16:11:59.469Z,12.55
2018-09-24T16:14:38.455Z,12.50
2018-09-24T16:17:17.774Z,12.53
2018-09-24T16:19:56.792Z,12.51
2018-09-24T16:22:36.253Z,12.46
2018-09-24T16:25:15.494Z,12.46
2018-09-24T16:27:54.870Z,12.44
2018-09-24T16:30:34.197Z,12.36
2018-09-24T16:33:14.158Z,12.39
2018-09-24T16:35:53.607Z,12.34
2018-09-24T16:38:33.545Z,12.28
2018-09-24T16:41:13.730Z,12.29
2018-09-24T16:43:53.100Z,12.16
2018-09-24T16:46:32.875Z,12.14
2018-09-24T16:49:13.047Z,12.16
2018-09-24T16:51:53.596Z,12.11
2018-09-24T16:54:33.086Z,12.05
2018-09-24T16:57:12.816Z,12.03
2018-09-24T16:59:52.181Z,11.97
2018-09-24T17:02:31.090Z,11.90
2018-09-24T17:05:10.964Z,11.88
2018-09-24T17:07:50.226Z,11.77
2018-09-24T17:10:30.135Z,11.66
2018-09-24T17:13:09.064Z,11.63
2018-09-24T17:15:48.089Z,11.61
2018-09-24T17:18:27.252Z,11.60
2018-09-24T17:21:06.480Z,11.54
2018-09-24T17:23:45.998Z,11.54
2018-09-24T17:26:24.988Z,11.51
2018-09-24T17:29:04.394Z,11.45
2018-09-24T17:31:43.741Z,11.38
2018-09-24T17:34:22.931Z,11.37
2018-09-24T17:37:01.926Z,11.36
2018-09-24T17:39:41.111Z,11.34
2018-09-24T17:42:21.619Z,11.25
2018-09-24T17:45:02.623Z,11.20
2018-09-24T17:47:41.790Z,11.17
2018-09-24T17:50:22.340Z,11.11
2018-09-24T17:53:02.219Z,11.08
2018-09-24T17:55:41.506Z,11.04
2018-09-24T17:58:20.432Z,11.00
2018-09-24T18:00:59.733Z,10.96
2018-09-24T18:03:38.892Z,10.93
2018-09-24T18:06:17.959Z,10.95
2018-09-24T18:08:57.281Z,10.90
2018-09-24T18:11:36.783Z,10.86
2018-09-24T18:14:15.942Z,10.80
2018-09-24T18:16:55.442Z,10.75
2018-09-24T18:19:35.563Z,10.70
2018-09-24T18:22:15.180Z,10.62
2018-09-24T18:24:54.446Z,10.60
2018-09-24T18:27:33.800Z,10.54
2018-09-24T18:30:13.197Z,10.49
2018-09-24T18:32:52.447Z,10.43
2018-09-24T18:35:31.624Z,10.38
2018-09-24T18:38:10.873Z,10.33
2018-09-24T18:40:49.944Z,10.25
2018-09-24T18:43:29.056Z,10.20
2018-09-24T18:46:08.266Z,10.17
2018-09-24T18:48:47.587Z,10.14
2018-09-24T18:51:26.904Z,10.07
2018-09-24T18:54:05.939Z,9.95
2018-09-24T18:56:45.064Z,9.93
2018-09-24T18:59:24.328Z,9.92
2018-09-24T19:02:03.515Z,9.94
2018-09-24T19:04:42.878Z,9.96
2018-09-24T19:07:22.064Z,9.96
2018-09-24T19:10:01.446Z,9.97
2018-09-24T19:12:40.698Z,9.84
2018-09-24T19:15:19.928Z,9.89
2018-09-24T19:17:58.949Z,9.85
2018-09-24T19:20:38.004Z,9.80
2018-09-24T19:23:17.193Z,9.77
2018-09-24T19:25:56.300Z,9.73
2018-09-24T19:28:35.886Z,9.69
2018-09-24T19:31:15.098Z,9.60
2018-09-24T19:33:54.174Z,9.57
2018-09-24T19:36:33.177Z,9.56
2018-09-24T19:39:14.102Z,9.53
2018-09-24T19:41:53.163Z,9.47
2018-09-24T19:44:32.310Z,9.33
2018-09-24T19:47:11.819Z,9.39
2018-09-24T19:49:50.797Z,9.41
2018-09-24T19:52:30.931Z,9.34
2018-09-24T19:55:09.840Z,9.41
2018-09-24T19:57:49.145Z,9.40
2018-09-24T20:00:28.418Z,9.40
2018-09-24T20:03:07.851Z,9.36
2018-09-24T20:05:46.860Z,9.37
2018-09-24T20:08:26.559Z,9.32
2018-09-24T20:11:05.693Z,9.25
2018-09-24T20:13:45.224Z,9.21
2018-09-24T20:16:24.568Z,9.19
2018-09-24T20:19:03.701Z,9.15
2018-09-24T20:21:43.033Z,9.13
2018-09-24T20:24:21.985Z,9.08
2018-09-24T20:27:00.906Z,9.13
2018-09-24T20:29:40.419Z,9.10
2018-09-24T20:32:19.799Z,9.05
2018-09-24T20:34:59.134Z,9.01
2018-09-24T20:37:38.232Z,9.07
2018-09-24T20:40:17.413Z,9.04
2018-09-24T20:42:56.527Z,8.88
2018-09-24T20:45:35.677Z,8.82
2018-09-24T20:48:15.057Z,8.81
2018-09-24T20:50:54.348Z,8.80
2018-09-24T20:53:33.647Z,8.73
2018-09-24T20:56:12.999Z,8.54
2018-09-24T20:58:52.154Z,8.51
2018-09-24T21:01:31.764Z,8.48
2018-09-24T21:04:11.471Z,8.54
2018-09-24T21:06:53.672Z,8.50
2018-09-24T21:09:33.482Z,8.52
2018-09-24T21:12:13.522Z,8.43
2018-09-24T21:14:53.202Z,8.38
2018-09-24T21:17:33.604Z,8.37
2018-09-24T21:20:13.949Z,8.33
2018-09-24T21:22:53.832Z,8.29
2018-09-24T21:25:34.274Z,8.24
2018-09-24T21:28:14.421Z,8.17
2018-09-24T21:30:55.215Z,8.18
2018-09-24T21:33:35.373Z,8.15
2018-09-24T21:36:15.208Z,8.17
2018-09-24T21:38:55.736Z,8.10
2018-09-24T21:41:35.831Z,8.11
2018-09-24T21:44:16.424Z,8.10
2018-09-24T21:46:56.465Z,8.07
2018-09-24T21:49:37.541Z,8.04
2018-09-24T21:52:17.512Z,8.03
2018-09-24T21:54:58.527Z,8.03
2018-09-24T21:57:38.023Z,8.00
2018-09-24T22:00:19.858Z,8.02
2018-09-24T22:02:59.910Z,7.97
2018-09-24T22:05:39.616Z,7.96
2018-09-24T22:08:19.348Z,7.97
2018-09-24T22:10:58.295Z,7.99
2018-09-24T22:13:37.129Z,7.90
2018-09-24T22:16:15.958Z,7.94
2018-09-24T22:18:54.825Z,7.91
2018-09-24T22:21:33.687Z,7.92
2018-09-24T22:24:12.634Z,7.87
2018-09-24T22:26:51.397Z,7.86
2018-09-24T22:29:30.169Z,7.83
2018-09-24T22:32:08.806Z,7.82
2018-09-24T22:34:47.734Z,7.79
2018-09-24T22:37:26.636Z,7.80
2018-09-24T22:40:05.413Z,7.77
2018-09-24T22:42:44.223Z,7.81
2018-09-24T22:45:23.131Z,7.84
2018-09-24T22:48:02.053Z,7.80
2018-09-24T22:50:40.779Z,7.79
2018-09-24T22:53:19.719Z,7.78
2018-09-24T22:55:58.677Z,7.72
2018-09-24T22:58:48.762Z,7.71
2018-09-24T23:01:27.553Z,7.71
2018-09-24T23:04:06.310Z,7.72
2018-09-24T23:06:45.055Z,7.71
2018-09-24T23:09:23.792Z,7.73
2018-09-24T23:12:02.470Z,7.71
2018-09-24T23:14:41.195Z,7.67
2018-09-24T23:17:20.145Z,7.67
2018-09-24T23:19:58.779Z,7.59
2018-09-24T23:22:37.620Z,7.59
2018-09-24T23:25:16.331Z,7.60
2018-09-24T23:27:55.148Z,7.59
2018-09-24T23:30:33.987Z,7.58
2018-09-24T23:33:12.921Z,7.59
2018-09-24T23:35:51.702Z,7.57
2018-09-24T23:38:30.668Z,7.52
2018-09-24T23:41:09.574Z,7.54
2018-09-24T23:43:48.247Z,7.50
2018-09-24T23:46:27.276Z,7.46
2018-09-24T23:49:05.918Z,7.44
2018-09-24T23:51:44.823Z,7.44
2018-09-24T23:54:23.595Z,7.37
2018-09-24T23:57:02.368Z,7.36
2018-09-24T23:59:41.043Z,7.30
